createdAt,value
2018-02-08T00:00:49.354Z,99.90
2018-02-08T00:03:17.697Z,99.90
2018-02-08T00:05:45.227Z,99.90
2018-02-08T00:08:12.844Z,99.90
2018-02-08T00:10:40.383Z,99.90
2018-02-08T00:13:07.894Z,99.90
2018-02-08T00:15:36.365Z,99.90
2018-02-08T00:18:03.862Z,99.90
2018-02-08T00:20:32.193Z,99.90
2018-02-08T00:22:59.773Z,99.90
2018-02-08T00:25:27.344Z,99.90
2018-02-08T00:27:55.640Z,99.90
2018-02-08T00:30:23.207Z,99.90
2018-02-08T00:32:50.743Z,99.90
2018-02-08T00:35:18.312Z,99.90
2018-02-08T00:37:45.863Z,99.90
2018-02-08T00:40:13.431Z,99.90
2018-02-08T00:42:41.769Z,99.90
2018-02-08T00:45:09.327Z,99.90
2018-02-08T00:47:37.669Z,99.90
2018-02-08T00:50:05.249Z,99.90
2018-02-08T00:52:33.775Z,99.90
2018-02-08T00:55:01.324Z,99.90
2018-02-08T00:57:28.898Z,99.90
2018-02-08T00:59:57.468Z,99.90
2018-02-08T01:02:25.769Z,99.90
2018-02-08T01:04:53.304Z,99.90
2018-02-08T01:07:21.184Z,99.90
2018-02-08T01:09:48.721Z,99.90
2018-02-08T01:12:16.255Z,99.90
2018-02-08T01:14:43.859Z,99.90
2018-02-08T01:17:12.228Z,99.90
2018-02-08T01:19:39.797Z,99.90
2018-02-08T01:22:07.345Z,99.90
2018-02-08T01:24:34.879Z,99.90
2018-02-08T01:27:02.457Z,99.90
2018-02-08T01:29:30.031Z,99.90
2018-02-08T01:31:58.310Z,99.90
2018-02-08T01:34:26.632Z,99.90
2018-02-08T01:36:54.403Z,99.90
2018-02-08T01:39:22.699Z,99.90
2018-02-08T01:41:50.264Z,99.90
2018-02-08T01:44:19.493Z,99.90
2018-02-08T01:46:47.804Z,99.90
2018-02-08T01:49:15.359Z,99.90
2018-02-08T01:51:42.907Z,99.90
2018-02-08T01:54:10.477Z,99.90
2018-02-08T01:56:38.820Z,99.90
2018-02-08T01:59:06.367Z,99.90
2018-02-08T02:01:33.952Z,99.90
2018-02-08T02:04:01.529Z,99.90
2018-02-08T02:06:29.050Z,99.90
2018-02-08T02:08:56.579Z,99.90
2018-02-08T02:11:24.115Z,99.90
2018-02-08T02:13:53.204Z,99.90
2018-02-08T02:16:20.747Z,99.90
2018-02-08T02:18:49.038Z,99.90
2018-02-08T02:21:16.629Z,99.90
2018-02-08T02:23:44.977Z,99.90
2018-02-08T02:26:12.515Z,99.90
2018-02-08T02:28:40.112Z,99.90
2018-02-08T02:31:07.700Z,99.90
2018-02-08T02:33:35.276Z,99.90
2018-02-08T02:36:03.853Z,99.90
2018-02-08T02:38:31.390Z,99.90
2018-02-08T02:40:59.760Z,99.90
2018-02-08T02:43:27.384Z,99.90
2018-02-08T02:45:55.687Z,99.90
2018-02-08T02:48:23.219Z,99.90
2018-02-08T02:50:52.185Z,99.90
2018-02-08T02:53:20.516Z,99.90
2018-02-08T02:55:48.042Z,99.90
2018-02-08T02:58:15.571Z,99.90
2018-02-08T03:00:43.112Z,99.90
2018-02-08T03:03:10.651Z,99.90
2018-02-08T03:05:38.239Z,99.90
2018-02-08T03:08:05.812Z,99.90
2018-02-08T03:10:33.388Z,99.90
2018-02-08T03:13:01.787Z,99.90
2018-02-08T03:15:29.328Z,99.90
2018-02-08T03:17:56.864Z,99.90
2018-02-08T03:20:24.436Z,99.90
2018-02-08T03:22:52.777Z,99.90
2018-02-08T03:25:20.345Z,99.90
2018-02-08T03:27:48.658Z,99.90
2018-02-08T03:30:31.101Z,99.90
2018-02-08T03:32:59.440Z,99.90
2018-02-08T03:35:27.020Z,99.90
2018-02-08T03:37:54.599Z,99.90
2018-02-08T03:40:23.192Z,99.90
2018-02-08T03:42:50.764Z,99.90
2018-02-08T03:45:19.041Z,99.90
2018-02-08T03:47:46.636Z,99.90
2018-02-08T03:50:14.175Z,99.90
2018-02-08T03:52:41.740Z,99.90
2018-02-08T03:55:09.848Z,99.90
2018-02-08T03:57:37.425Z,99.90
2018-02-08T04:00:05.001Z,99.90
2018-02-08T04:02:33.493Z,99.90
2018-02-08T04:05:01.068Z,99.90
2018-02-08T04:07:28.600Z,99.90
2018-02-08T04:09:56.147Z,99.90
2018-02-08T04:12:23.649Z,99.90
2018-02-08T04:14:51.952Z,99.90
2018-02-08T04:17:19.864Z,99.90
2018-02-08T04:19:47.415Z,99.90
2018-02-08T04:22:14.950Z,99.90
2018-02-08T04:24:42.552Z,99.90
2018-02-08T04:27:10.096Z,99.90
2018-02-08T04:29:37.631Z,99.90
2018-02-08T04:32:05.245Z,99.90
2018-02-08T04:34:32.775Z,99.90
2018-02-08T04:37:00.310Z,99.90
2018-02-08T04:39:41.323Z,99.90
2018-02-08T04:42:20.732Z,99.90
2018-02-08T04:45:00.100Z,99.90
2018-02-08T04:47:34.248Z,99.90
2018-02-08T04:50:01.852Z,99.90
2018-02-08T04:52:29.456Z,99.90
2018-02-08T04:54:57.059Z,99.90
2018-02-08T04:57:25.324Z,99.90
2018-02-08T04:59:52.929Z,99.90
2018-02-08T05:02:21.577Z,99.90
2018-02-08T05:04:49.179Z,99.90
2018-02-08T05:07:16.772Z,99.90
2018-02-08T05:09:44.340Z,99.90
2018-02-08T05:12:12.739Z,99.90
2018-02-08T05:14:40.276Z,99.90
2018-02-08T05:17:07.815Z,99.90
2018-02-08T05:19:35.671Z,99.90
2018-02-08T05:22:03.407Z,99.90
2018-02-08T05:24:30.980Z,99.90
2018-02-08T05:26:58.580Z,99.90
2018-02-08T05:29:26.880Z,99.90
2018-02-08T05:31:54.452Z,99.90
2018-02-08T05:34:22.848Z,99.90
2018-02-08T05:36:51.184Z,99.90
2018-02-08T05:39:18.757Z,99.90
2018-02-08T05:41:47.119Z,99.90
2018-02-08T05:44:15.457Z,99.90
2018-02-08T05:46:42.988Z,99.90
2018-02-08T05:49:10.711Z,99.90
2018-02-08T05:51:38.244Z,99.90
2018-02-08T05:54:05.783Z,99.90
2018-02-08T05:56:33.388Z,99.90
2018-02-08T05:59:01.733Z,99.90
2018-02-08T06:01:29.351Z,99.90
2018-02-08T06:03:57.720Z,99.90
2018-02-08T06:06:25.256Z,99.90
2018-02-08T06:08:52.828Z,99.90
2018-02-08T06:11:21.191Z,99.90
2018-02-08T06:13:48.723Z,99.90
2018-02-08T06:16:16.255Z,99.90
2018-02-08T06:18:43.823Z,99.90
2018-02-08T06:21:11.381Z,99.90
2018-02-08T06:23:39.686Z,99.90
2018-02-08T06:26:07.215Z,99.90
2018-02-08T06:28:35.540Z,99.90
2018-02-08T06:31:03.129Z,99.90
2018-02-08T06:33:31.485Z,99.90
2018-02-08T06:35:59.011Z,99.90
2018-02-08T06:38:27.315Z,99.90
2018-02-08T06:40:54.905Z,99.90
2018-02-08T06:43:23.252Z,99.90
2018-02-08T06:45:50.825Z,99.90
2018-02-08T06:48:19.200Z,99.90
2018-02-08T06:50:46.735Z,99.90
2018-02-08T06:53:14.310Z,99.90
2018-02-08T06:55:42.731Z,99.90
2018-02-08T06:58:11.032Z,99.90
2018-02-08T07:00:38.599Z,99.90
2018-02-08T07:03:07.716Z,99.90
2018-02-08T07:05:35.276Z,99.90
2018-02-08T07:08:02.845Z,99.90
2018-02-08T07:10:30.449Z,99.90
2018-02-08T07:12:58.730Z,99.90
2018-02-08T07:15:27.018Z,99.90
2018-02-08T07:17:55.357Z,99.90
2018-02-08T07:20:22.895Z,99.90
2018-02-08T07:22:50.477Z,99.90
2018-02-08T07:25:18.840Z,99.90
2018-02-08T07:27:46.410Z,99.90
2018-02-08T07:30:13.944Z,99.90
2018-02-08T07:32:41.552Z,99.90
2018-02-08T07:35:09.124Z,99.90
2018-02-08T07:37:36.696Z,99.90
2018-02-08T07:40:04.884Z,99.90
2018-02-08T07:42:32.460Z,99.90
2018-02-08T07:45:00.002Z,99.90
2018-02-08T07:47:27.567Z,99.90
2018-02-08T07:49:55.104Z,99.90
2018-02-08T07:52:23.408Z,99.90
2018-02-08T07:54:52.375Z,99.90
2018-02-08T07:57:20.658Z,99.90
2018-02-08T07:59:48.949Z,99.90
2018-02-08T08:02:17.330Z,99.90
2018-02-08T08:04:44.906Z,99.90
2018-02-08T08:07:13.247Z,99.90
2018-02-08T08:09:40.844Z,99.90
2018-02-08T08:12:08.375Z,99.90
2018-02-08T08:14:35.848Z,99.90
2018-02-08T08:17:03.415Z,99.90
2018-02-08T08:19:30.984Z,99.90
2018-02-08T08:21:59.320Z,99.90
2018-02-08T08:24:26.895Z,99.90
2018-02-08T08:26:55.199Z,99.90
2018-02-08T08:29:22.774Z,99.90
2018-02-08T08:31:50.435Z,99.50
2018-02-08T08:34:18.781Z,99.90
2018-02-08T08:36:46.356Z,99.90
2018-02-08T08:39:14.723Z,99.90
2018-02-08T08:41:42.332Z,99.90
2018-02-08T08:44:09.902Z,99.90
2018-02-08T08:46:37.760Z,99.90
2018-02-08T08:49:06.061Z,99.50
2018-02-08T08:51:33.632Z,99.50
2018-02-08T08:54:01.203Z,99.60
2018-02-08T08:56:29.505Z,99.60
2018-02-08T08:58:57.012Z,99.50
2018-02-08T09:01:25.388Z,98.90
2018-02-08T09:03:52.935Z,98.90
2018-02-08T09:06:20.511Z,99.80
2018-02-08T09:08:48.193Z,99.90
2018-02-08T09:11:15.732Z,99.90
2018-02-08T09:13:43.267Z,99.20
2018-02-08T09:16:10.821Z,99.60
2018-02-08T09:18:38.355Z,98.60
2018-02-08T09:21:05.928Z,98.40
2018-02-08T09:23:33.793Z,98.70
2018-02-08T09:26:01.368Z,98.30
2018-02-08T09:28:28.953Z,98.40
2018-02-08T09:30:56.488Z,98.40
2018-02-08T09:33:24.056Z,98.00
2018-02-08T09:35:52.396Z,96.60
2018-02-08T09:38:20.179Z,96.50
2018-02-08T09:40:47.715Z,97.00
2018-02-08T09:43:15.255Z,97.80
2018-02-08T09:45:43.649Z,96.90
2018-02-08T09:48:11.182Z,96.90
2018-02-08T09:50:38.710Z,97.40
2018-02-08T09:53:07.444Z,95.90
2018-02-08T09:55:35.016Z,96.00
2018-02-08T09:58:03.319Z,96.70
2018-02-08T10:00:31.071Z,96.70
2018-02-08T10:02:58.613Z,96.90
2018-02-08T10:05:26.184Z,97.00
2018-02-08T10:07:53.823Z,96.90
2018-02-08T10:10:21.392Z,95.60
2018-02-08T10:12:49.699Z,96.20
2018-02-08T10:15:17.260Z,96.20
2018-02-08T10:17:44.799Z,95.60
2018-02-08T10:20:12.340Z,96.30
2018-02-08T10:22:40.109Z,95.10
2018-02-08T10:25:07.687Z,96.70
2018-02-08T10:27:36.028Z,96.20
2018-02-08T10:30:03.605Z,96.20
2018-02-08T10:32:31.139Z,95.10
2018-02-08T10:34:59.441Z,96.30
2018-02-08T10:37:27.178Z,96.00
2018-02-08T10:39:54.780Z,96.40
2018-02-08T10:42:22.303Z,96.00
2018-02-08T10:44:49.959Z,94.40
2018-02-08T10:47:17.532Z,94.80
2018-02-08T10:49:45.104Z,94.00
2018-02-08T10:52:12.927Z,94.80
2018-02-08T10:54:41.145Z,94.60
2018-02-08T10:57:08.672Z,94.60
2018-02-08T10:59:36.244Z,95.30
2018-02-08T11:02:03.812Z,94.00
2018-02-08T11:04:31.355Z,93.70
2018-02-08T11:06:59.732Z,93.50
2018-02-08T11:09:27.291Z,93.50
2018-02-08T11:11:54.823Z,93.10
2018-02-08T11:14:22.623Z,93.40
2018-02-08T11:16:50.212Z,92.60
2018-02-08T11:19:17.739Z,93.30
2018-02-08T11:21:46.064Z,91.90
2018-02-08T11:24:13.573Z,91.90
2018-02-08T11:26:41.137Z,90.60
2018-02-08T11:29:08.707Z,92.40
2018-02-08T11:31:36.288Z,92.10
2018-02-08T11:34:03.824Z,92.10
2018-02-08T11:36:32.460Z,91.40
2018-02-08T11:39:00.039Z,91.40
2018-02-08T11:41:27.612Z,92.40
2018-02-08T11:43:55.164Z,90.80
2018-02-08T11:46:22.738Z,90.40
2018-02-08T11:48:50.283Z,90.60
2018-02-08T11:51:18.007Z,91.30
2018-02-08T11:53:45.547Z,90.00
2018-02-08T11:56:13.117Z,90.00
2018-02-08T11:58:40.716Z,90.30
2018-02-08T12:01:08.288Z,90.20
2018-02-08T12:03:35.827Z,89.30
2018-02-08T12:06:03.487Z,88.90
2018-02-08T12:08:31.027Z,91.20
2018-02-08T12:10:58.592Z,90.50
2018-02-08T12:13:27.281Z,89.80
2018-02-08T12:15:55.625Z,89.40
2018-02-08T12:18:23.275Z,89.50
2018-02-08T12:20:50.940Z,90.70
2018-02-08T12:23:19.237Z,91.20
2018-02-08T12:25:46.826Z,91.20
2018-02-08T12:28:14.796Z,91.60
2018-02-08T12:30:43.108Z,89.40
2018-02-08T12:33:10.668Z,89.60
2018-02-08T12:35:38.372Z,91.10
2018-02-08T12:38:05.903Z,87.60
2018-02-08T12:40:33.481Z,90.00
2018-02-08T12:43:01.080Z,90.70
2018-02-08T12:45:28.628Z,86.30
2018-02-08T12:47:56.931Z,82.50
2018-02-08T12:50:24.506Z,82.40
2018-02-08T12:52:52.082Z,85.30
2018-02-08T12:55:19.631Z,74.80
2018-02-08T12:57:47.216Z,78.30
2018-02-08T13:00:14.791Z,74.20
2018-02-08T13:02:42.369Z,80.20
2018-02-08T13:05:09.936Z,80.50
2018-02-08T13:07:37.801Z,90.00
2018-02-08T13:10:05.346Z,83.20
2018-02-08T13:12:33.313Z,83.50
2018-02-08T13:15:00.888Z,86.00
2018-02-08T13:17:29.220Z,88.30
2018-02-08T13:19:56.999Z,88.20
2018-02-08T13:22:25.299Z,92.60
2018-02-08T13:24:52.873Z,92.60
2018-02-08T13:27:20.563Z,93.30
2018-02-08T13:29:48.044Z,92.80
2018-02-08T13:32:16.528Z,91.10
2018-02-08T13:34:44.137Z,92.60
2018-02-08T13:37:11.679Z,94.70
2018-02-08T13:39:39.255Z,93.00
2018-02-08T13:42:09.475Z,94.30
2018-02-08T13:44:37.051Z,94.30
2018-02-08T13:47:19.492Z,93.20
2018-02-08T13:49:50.504Z,96.00
2018-02-08T13:52:32.963Z,96.20
2018-02-08T13:55:04.039Z,95.00
2018-02-08T13:57:37.203Z,95.00
2018-02-08T14:00:19.629Z,96.10
2018-02-08T14:02:47.997Z,95.30
2018-02-08T14:05:16.337Z,94.80
2018-02-08T14:07:43.908Z,94.80
2018-02-08T14:10:12.385Z,97.70
2018-02-08T14:12:39.923Z,97.70
2018-02-08T14:15:07.400Z,96.50
2018-02-08T14:17:35.316Z,97.90
2018-02-08T14:20:03.598Z,96.30
2018-02-08T14:22:31.139Z,96.20
2018-02-08T14:24:58.791Z,97.70
2018-02-08T14:27:26.359Z,94.40
2018-02-08T14:29:54.696Z,95.60
2018-02-08T14:32:22.292Z,95.60
2018-02-08T14:34:49.876Z,97.70
2018-02-08T14:37:17.472Z,94.40
2018-02-08T14:39:45.031Z,94.50
2018-02-08T14:42:12.632Z,95.30
2018-02-08T14:44:40.205Z,94.50
2018-02-08T14:47:07.859Z,96.70
2018-02-08T14:49:35.432Z,96.20
2018-02-08T14:52:03.006Z,95.00
2018-02-08T14:54:30.991Z,95.00
2018-02-08T14:56:58.569Z,93.10
2018-02-08T14:59:26.889Z,93.50
2018-02-08T15:01:54.422Z,93.50
2018-02-08T15:04:21.954Z,94.60
2018-02-08T15:06:49.502Z,94.50
2018-02-08T15:09:17.189Z,93.10
2018-02-08T15:11:44.727Z,94.10
2018-02-08T15:14:12.306Z,94.40
2018-02-08T15:16:39.946Z,94.50
2018-02-08T15:19:07.479Z,94.80
2018-02-08T15:21:35.834Z,94.30
2018-02-08T15:24:03.561Z,94.30
2018-02-08T15:26:31.033Z,95.60
2018-02-08T15:28:59.368Z,94.80
2018-02-08T15:31:27.348Z,94.80
2018-02-08T15:33:55.782Z,93.70
2018-02-08T15:36:23.363Z,96.20
2018-02-08T15:38:50.973Z,94.80
2018-02-08T15:41:18.532Z,94.80
2018-02-08T15:43:46.851Z,94.70
2018-02-08T15:46:14.413Z,94.70
2018-02-08T15:48:42.723Z,93.80
2018-02-08T15:51:10.307Z,93.80
2018-02-08T15:53:38.024Z,94.80
2018-02-08T15:56:05.566Z,95.10
2018-02-08T15:58:33.141Z,94.10
2018-02-08T16:01:00.768Z,96.20
2018-02-08T16:03:28.307Z,96.00
2018-02-08T16:05:55.868Z,95.80
2018-02-08T16:08:23.591Z,94.00
2018-02-08T16:10:51.167Z,93.80
2018-02-08T16:13:18.703Z,93.00
2018-02-08T16:15:46.518Z,94.70
2018-02-08T16:18:14.059Z,96.20
2018-02-08T16:20:42.508Z,94.40
2018-02-08T16:23:11.089Z,95.60
2018-02-08T16:25:39.390Z,93.90
2018-02-08T16:28:06.964Z,93.90
2018-02-08T16:30:34.665Z,92.60
2018-02-08T16:33:02.211Z,94.50
2018-02-08T16:35:29.705Z,94.80
2018-02-08T16:37:57.643Z,93.40
2018-02-08T16:40:25.226Z,94.80
2018-02-08T16:42:53.503Z,94.00
2018-02-08T16:45:21.101Z,94.00
2018-02-08T16:47:48.610Z,96.10
2018-02-08T16:50:16.172Z,95.00
2018-02-08T16:52:43.827Z,95.10
2018-02-08T16:55:11.408Z,96.20
2018-02-08T16:57:38.947Z,95.10
2018-02-08T17:00:07.279Z,95.40
2018-02-08T17:02:34.989Z,95.30
2018-02-08T17:05:02.808Z,96.00
2018-02-08T17:07:31.236Z,97.70
2018-02-08T17:09:58.821Z,97.70
2018-02-08T17:12:27.124Z,99.10
2018-02-08T17:14:54.784Z,99.00
2018-02-08T17:17:22.328Z,98.70
2018-02-08T17:19:50.635Z,99.90
2018-02-08T17:22:19.111Z,99.90
2018-02-08T17:24:46.687Z,99.90
2018-02-08T17:27:14.224Z,99.90
2018-02-08T17:29:41.782Z,99.90
2018-02-08T17:32:09.348Z,99.90
2018-02-08T17:34:36.892Z,99.90
2018-02-08T17:37:04.831Z,99.90
2018-02-08T17:39:32.384Z,99.90
2018-02-08T17:41:59.988Z,99.90
2018-02-08T17:44:27.577Z,99.90
2018-02-08T17:46:55.115Z,99.90
2018-02-08T17:49:22.688Z,99.90
2018-02-08T17:51:51.036Z,99.90
2018-02-08T17:54:18.572Z,99.90
2018-02-08T17:56:46.148Z,99.90
2018-02-08T17:59:13.840Z,99.90
2018-02-08T18:01:41.409Z,99.90
2018-02-08T18:04:08.951Z,99.90
2018-02-08T18:06:36.825Z,99.90
2018-02-08T18:09:05.069Z,99.90
2018-02-08T18:11:32.637Z,99.90
2018-02-08T18:14:00.212Z,99.90
2018-02-08T18:16:27.784Z,99.90
2018-02-08T18:18:55.260Z,99.90
2018-02-08T18:21:23.910Z,99.90
2018-02-08T18:23:51.500Z,99.90
2018-02-08T18:26:19.049Z,99.90
2018-02-08T18:28:46.635Z,99.90
2018-02-08T18:31:14.175Z,99.90
2018-02-08T18:33:41.695Z,99.90
2018-02-08T18:36:09.173Z,99.90
2018-02-08T18:38:36.727Z,99.90
2018-02-08T18:41:05.053Z,99.90
2018-02-08T18:43:32.844Z,99.90
2018-02-08T18:46:01.185Z,99.90
2018-02-08T18:48:28.769Z,99.90
2018-02-08T18:50:56.656Z,99.90
2018-02-08T18:53:24.254Z,99.90
2018-02-08T18:55:51.815Z,99.90
2018-02-08T18:58:19.478Z,99.90
2018-02-08T19:00:46.993Z,99.90
2018-02-08T19:03:15.333Z,99.90
2018-02-08T19:05:43.891Z,99.90
2018-02-08T19:08:11.422Z,99.90
2018-02-08T19:10:38.969Z,99.90
2018-02-08T19:13:06.820Z,99.90
2018-02-08T19:15:34.360Z,99.90
2018-02-08T19:18:01.905Z,99.90
2018-02-08T19:20:29.537Z,99.90
2018-02-08T19:22:57.116Z,99.90
2018-02-08T19:25:24.693Z,99.90
2018-02-08T19:27:52.360Z,99.90
2018-02-08T19:30:19.936Z,99.90
2018-02-08T19:32:47.476Z,99.90
2018-02-08T19:35:15.080Z,99.90
2018-02-08T19:37:42.653Z,99.90
2018-02-08T19:40:10.228Z,99.90
2018-02-08T19:42:38.558Z,99.90
2018-02-08T19:45:06.107Z,99.90
2018-02-08T19:47:33.665Z,99.90
2018-02-08T19:50:01.214Z,99.90
2018-02-08T19:52:28.737Z,99.90
2018-02-08T19:54:56.250Z,99.90
2018-02-08T19:57:23.836Z,99.90
2018-02-08T19:59:51.371Z,99.90
2018-02-08T20:02:18.946Z,99.90
2018-02-08T20:04:47.268Z,99.90
2018-02-08T20:07:14.845Z,99.90
2018-02-08T20:09:42.379Z,99.90
2018-02-08T20:12:10.227Z,99.90
2018-02-08T20:14:39.771Z,99.90
2018-02-08T20:17:07.345Z,99.90
2018-02-08T20:19:34.960Z,99.90
2018-02-08T20:22:02.491Z,99.90
2018-02-08T20:24:30.068Z,99.90
2018-02-08T20:26:57.860Z,99.90
2018-02-08T20:29:26.171Z,99.90
2018-02-08T20:31:53.745Z,99.90
2018-02-08T20:34:21.320Z,99.90
2018-02-08T20:36:49.623Z,99.90
2018-02-08T20:39:17.685Z,99.90
2018-02-08T20:41:45.468Z,99.90
2018-02-08T20:44:13.009Z,99.90
2018-02-08T20:46:40.593Z,99.90
2018-02-08T20:49:08.166Z,99.90
2018-02-08T20:51:35.712Z,99.90
2018-02-08T20:54:03.255Z,99.90
2018-02-08T20:56:30.845Z,99.90
2018-02-08T20:58:59.189Z,99.90
2018-02-08T21:01:26.790Z,99.90
2018-02-08T21:03:54.380Z,99.90
2018-02-08T21:06:21.923Z,99.90
2018-02-08T21:08:50.453Z,99.90
2018-02-08T21:11:18.224Z,99.90
2018-02-08T21:13:45.792Z,99.90
2018-02-08T21:16:14.129Z,99.90
2018-02-08T21:18:42.120Z,99.90
2018-02-08T21:21:09.692Z,99.90
2018-02-08T21:23:37.277Z,99.90
2018-02-08T21:26:04.873Z,99.90
2018-02-08T21:28:32.457Z,99.90
2018-02-08T21:30:59.986Z,99.90
2018-02-08T21:33:27.533Z,99.90
2018-02-08T21:35:55.100Z,99.90
2018-02-08T21:38:22.673Z,99.90
2018-02-08T21:40:51.002Z,99.90
2018-02-08T21:43:18.544Z,99.90
2018-02-08T21:45:46.079Z,99.90
2018-02-08T21:48:14.452Z,99.90
2018-02-08T21:50:41.995Z,99.90
2018-02-08T21:53:09.531Z,99.90
2018-02-08T21:55:37.524Z,99.90
2018-02-08T21:58:05.084Z,99.90
2018-02-08T22:00:32.624Z,99.90
2018-02-08T22:03:00.312Z,99.90
2018-02-08T22:05:27.895Z,99.90
2018-02-08T22:07:56.232Z,99.90
2018-02-08T22:10:24.021Z,99.90
2018-02-08T22:12:51.628Z,99.90
2018-02-08T22:15:19.212Z,99.90
2018-02-08T22:17:46.791Z,99.90
2018-02-08T22:20:14.373Z,99.90
2018-02-08T22:22:41.949Z,99.90
2018-02-08T22:25:09.854Z,99.90
2018-02-08T22:27:37.436Z,99.90
2018-02-08T22:30:05.745Z,99.90
2018-02-08T22:32:33.715Z,99.90
2018-02-08T22:35:01.252Z,99.90
2018-02-08T22:37:28.825Z,99.90
2018-02-08T22:39:57.156Z,99.90
2018-02-08T22:42:24.638Z,99.90
2018-02-08T22:44:52.963Z,99.90
2018-02-08T22:47:20.547Z,99.90
2018-02-08T22:49:48.884Z,99.90
2018-02-08T22:52:16.423Z,99.90
2018-02-08T22:54:44.071Z,99.90
2018-02-08T22:57:11.608Z,99.90
2018-02-08T22:59:39.157Z,99.90
2018-02-08T23:02:06.806Z,99.90
2018-02-08T23:04:34.380Z,99.90
2018-02-08T23:07:01.856Z,99.90
2018-02-08T23:09:29.691Z,99.90
2018-02-08T23:11:57.222Z,99.90
2018-02-08T23:14:24.758Z,99.90
2018-02-08T23:16:52.369Z,99.90
2018-02-08T23:19:19.943Z,99.90
2018-02-08T23:21:48.251Z,99.90
2018-02-08T23:24:15.954Z,99.90
2018-02-08T23:26:43.500Z,99.90
2018-02-08T23:29:11.040Z,99.90
2018-02-08T23:31:39.371Z,99.90
2018-02-08T23:34:06.949Z,99.90
2018-02-08T23:36:34.498Z,99.90
2018-02-08T23:39:03.215Z,99.90
2018-02-08T23:41:30.793Z,99.90
2018-02-08T23:43:59.113Z,99.90
2018-02-08T23:46:26.675Z,99.90
2018-02-08T23:48:54.244Z,99.90
2018-02-08T23:51:22.552Z,99.90
2018-02-08T23:53:50.124Z,99.90
2018-02-08T23:56:17.662Z,99.90
2018-02-08T23:58:45.195Z,99.90
